»·PEaware :: N523JS KONT-KTOA

N523JS :: KONT-KTOA

FLIGHT INFORMATION

Flight Status: Arrived
Operator: Privately registered:
United States
More flights under this callsign
Pilot: Anonymous 2940 (2940)
Aircraft: MOONEY M-20K/M ENCORE BRAVO
(M20T)
More flights by this aircraft type
Origin: KONT Ontario Intl
United States
Destination: KTOA Zamperini
United States
More flights between these airports :: More routes between these airports
Route: PDZ PDZ270/015 DOWDD V394 SLI
File this flight plan on PilotEdge
Remarks:
Altitude:
(Current/Filed)
4,000ft
Speed:
(Current/Filed)
185kts
Departed: 17-Nov-19 05:51 PM
Arrived: 17-Nov-19 06:16 PM
Distance/Time
Traveled:
40nm/0:24
Distance/Time
To Go:
Arrived

Flight Plot

Page will automatically refresh every two minutes.

Flight plan parsing failed; only flown route is shown


Map Options




Map Legend


Flown Route
Filed Route
Departure Airport
Arrival Airport
Navaid (VOR, NDB)
Fix

Horizontal Profiles

Position Reports

Time Latitude Longitude Heading Altitude Ground
Speed
17-Nov-19 17:14 34.061497 -117.606714 110 947ft 0kts
17-Nov-19 17:15 34.061497 -117.606714 110 947ft 0kts
17-Nov-19 17:16 34.061497 -117.606714 110 947ft 0kts
17-Nov-19 17:17 34.061497 -117.606714 110 947ft 0kts
17-Nov-19 17:18 34.061497 -117.606714 110 947ft 0kts
17-Nov-19 17:19 34.061497 -117.606714 110 947ft 0kts
17-Nov-19 17:20 34.061497 -117.606713 110 947ft 0kts
17-Nov-19 17:21 34.061496 -117.606713 110 947ft 0kts
17-Nov-19 17:22 34.061496 -117.606713 110 947ft 0kts
17-Nov-19 17:23 34.061496 -117.606713 110 947ft 0kts
17-Nov-19 17:24 34.061496 -117.606713 110 947ft 0kts
17-Nov-19 17:25 34.061496 -117.606713 110 947ft 0kts
17-Nov-19 17:26 34.061496 -117.606712 110 947ft 0kts
17-Nov-19 17:27 34.061496 -117.606712 110 947ft 0kts
17-Nov-19 17:28 34.061496 -117.606712 110 947ft 0kts
17-Nov-19 17:29 34.061496 -117.606712 110 947ft 0kts
17-Nov-19 17:30 34.061496 -117.606712 110 947ft 0kts
17-Nov-19 17:31 34.061496 -117.606712 110 947ft 0kts
17-Nov-19 17:32 34.061496 -117.606712 110 947ft 0kts
17-Nov-19 17:33 34.061496 -117.606711 110 947ft 0kts
17-Nov-19 17:34 34.061496 -117.606711 110 947ft 0kts
17-Nov-19 17:35 34.061496 -117.606711 110 947ft 0kts
17-Nov-19 17:36 34.061495 -117.606710 110 947ft 0kts
17-Nov-19 17:37 34.061481 -117.606671 116 947ft 0kts
17-Nov-19 17:38 34.061481 -117.606671 116 947ft 0kts
17-Nov-19 17:39 34.061481 -117.606671 116 947ft 0kts
17-Nov-19 17:40 34.061481 -117.606671 116 947ft 0kts
17-Nov-19 17:41 34.060026 -117.606122 176 947ft 11kts
17-Nov-19 17:42 34.058570 -117.603325 112 947ft 16kts
17-Nov-19 17:43 34.057924 -117.597238 89 947ft 29kts
17-Nov-19 17:44 34.057933 -117.585132 89 947ft 34kts
17-Nov-19 17:45 34.057717 -117.582680 178 947ft 0kts
17-Nov-19 17:46 34.057717 -117.582680 178 947ft 0kts
17-Nov-19 17:47 34.057717 -117.582680 178 947ft 0kts
17-Nov-19 17:48 34.057717 -117.582680 178 947ft 0kts
17-Nov-19 17:49 34.056902 -117.583412 268 947ft 19kts
17-Nov-19 17:50 34.057168 -117.612065 269 1303ft 114kts
17-Nov-19 17:51 34.056997 -117.652330 269 2136ft 124kts
17-Nov-19 17:52 34.056811 -117.695183 269 2948ft 130kts
17-Nov-19 17:53 34.056621 -117.739071 269 3792ft 129kts
17-Nov-19 17:54 34.056412 -117.787435 269 4008ft 159kts
17-Nov-19 17:55 34.049757 -117.840720 217 3998ft 170kts
17-Nov-19 17:56 34.002967 -117.839821 171 4000ft 173kts
17-Nov-19 17:57 33.956019 -117.843381 203 4002ft 173kts
17-Nov-19 17:58 33.910669 -117.862821 193 4000ft 174kts
17-Nov-19 17:59 33.864691 -117.876319 193 3997ft 163kts
17-Nov-19 18:00 33.819775 -117.889480 193 3995ft 164kts
17-Nov-19 18:01 33.774497 -117.902740 193 4000ft 170kts
17-Nov-19 18:02 33.728158 -117.916304 193 4000ft 172kts
17-Nov-19 18:03 33.681502 -117.929954 193 4000ft 173kts
17-Nov-19 18:04 33.645499 -117.951749 267 3996ft 142kts
17-Nov-19 18:05 33.651949 -117.998676 280 3663ft 154kts
17-Nov-19 18:06 33.660031 -118.049971 280 2696ft 156kts
17-Nov-19 18:07 33.667789 -118.099209 280 2042ft 142kts
17-Nov-19 18:08 33.676356 -118.141789 292 1996ft 124kts
17-Nov-19 18:09 33.692834 -118.176296 307 1996ft 116kts
17-Nov-19 18:10 33.715885 -118.207350 312 2004ft 130kts
17-Nov-19 18:11 33.739384 -118.241640 307 2000ft 134kts
17-Nov-19 18:12 33.763819 -118.279051 308 1523ft 150kts
17-Nov-19 18:13 33.784553 -118.310231 308 618ft 83kts
17-Nov-19 18:14 33.797356 -118.329653 305 210ft 77kts
17-Nov-19 18:15 33.805545 -118.342385 284 106ft 17kts
17-Nov-19 18:16 33.805798 -118.343511 284 106ft 28kts
17-Nov-19 18:17 33.804174 -118.344616 231 106ft 12kts
17-Nov-19 18:18 33.803745 -118.345328 341 106ft 0kts
17-Nov-19 18:19 33.803745 -118.345328 341 106ft 0kts
17-Nov-19 18:20 33.803745 -118.345328 341 106ft 0kts
17-Nov-19 18:21 33.803745 -118.345328 341 106ft 0kts
17-Nov-19 18:22 33.803745 -118.345328 341 106ft 0kts
17-Nov-19 18:23 33.803746 -118.345328 341 106ft 0kts
17-Nov-19 18:24 33.803746 -118.345328 341 106ft 0kts
17-Nov-19 18:25 33.803746 -118.345328 341 106ft 0kts
17-Nov-19 18:26 33.803746 -118.345328 341 106ft 0kts
17-Nov-19 18:27 33.803750 -118.345329 341 106ft 0kts
17-Nov-19 18:28 33.803750 -118.345329 341 106ft 0kts
17-Nov-19 18:29 33.803750 -118.345330 341 106ft 0kts

Navigation Log

Ident Type
Flight plan parsing failed, navigation log unavailable